createdAt,value
2023-04-09T00:01:50.296Z,0.6
2023-04-09T00:04:21.020Z,0.6
2023-04-09T00:06:51.733Z,0.5
2023-04-09T00:09:32.303Z,0.6
2023-04-09T00:12:02.909Z,0.6
2023-04-09T00:14:33.482Z,0.6
2023-04-09T00:17:04.043Z,0.5
2023-04-09T00:19:34.680Z,0.5
2023-04-09T00:22:05.260Z,0.5
2023-04-09T00:24:45.857Z,0.4
2023-04-09T00:27:16.412Z,0.4
2023-04-09T00:32:16.975Z,0.4
2023-04-09T00:34:47.587Z,0.4
2023-04-09T00:37:18.169Z,0.4
2023-04-09T00:39:58.753Z,0.4
2023-04-09T00:42:29.309Z,0.3
2023-04-09T00:44:59.894Z,0.3
2023-04-09T00:47:30.481Z,0.3
2023-04-09T00:50:01.101Z,0.3
2023-04-09T00:52:31.667Z,0.2
2023-04-09T00:55:12.203Z,0.2
2023-04-09T00:57:42.752Z,0.2
2023-04-09T01:00:13.366Z,0.2
2023-04-09T01:02:44.065Z,0.2
2023-04-09T01:05:15.004Z,0.1
2023-04-09T01:07:45.529Z,0.1
2023-04-09T01:12:56.084Z,0.1
2023-04-09T01:15:26.661Z,0.2
2023-04-09T01:17:57.358Z,0.3
2023-04-09T01:20:27.935Z,0.3
2023-04-09T01:23:08.495Z,0.3
2023-04-09T01:25:39.073Z,0.3
2023-04-09T01:28:09.613Z,0.3
2023-04-09T01:30:40.181Z,0.3
2023-04-09T01:33:10.929Z,0.3
2023-04-09T01:35:41.672Z,0.3
2023-04-09T01:38:22.384Z,0.3
2023-04-09T01:40:52.985Z,0.3
2023-04-09T01:43:33.557Z,0.3
2023-04-09T01:46:04.228Z,0.2
2023-04-09T01:48:34.920Z,0.3
2023-04-09T01:53:45.489Z,0.3
2023-04-09T01:56:16.066Z,0.2
2023-04-09T01:58:46.949Z,-0.1
2023-04-09T02:01:17.547Z,-0.1
2023-04-09T02:03:48.511Z,-0.2
2023-04-09T02:06:19.356Z,-0.2
2023-04-09T02:08:59.911Z,-0.2
2023-04-09T02:11:30.478Z,-0.2
2023-04-09T02:14:01.084Z,-0.2
2023-04-09T02:16:31.909Z,-0.2
2023-04-09T02:19:02.483Z,-0.2
2023-04-09T02:21:43.046Z,-0.1
2023-04-09T02:24:13.618Z,-0.1
2023-04-09T02:26:44.212Z,-0.3
2023-04-09T02:29:14.748Z,-0.4
2023-04-09T02:34:15.319Z,-0.5
2023-04-09T02:36:55.895Z,-0.7
2023-04-09T02:39:26.454Z,-0.8
2023-04-09T02:41:57.011Z,-0.9
2023-04-09T02:44:27.615Z,-0.9
2023-04-09T02:46:58.226Z,-0.9
2023-04-09T02:49:28.813Z,-1.0
2023-04-09T02:52:09.370Z,-1.1
2023-04-09T02:54:39.897Z,-1.1
2023-04-09T02:57:10.526Z,-1.1
2023-04-09T02:59:41.073Z,-1.2
2023-04-09T03:02:11.741Z,-1.2
2023-04-09T03:04:42.894Z,-1.2
2023-04-09T03:07:23.460Z,-1.2
2023-04-09T03:09:54.054Z,-1.3
2023-04-09T03:14:54.669Z,-1.3
2023-04-09T03:17:25.306Z,-1.4
2023-04-09T03:20:06.015Z,-1.5
2023-04-09T03:22:36.629Z,-1.3
2023-04-09T03:25:07.180Z,-1.4
2023-04-09T03:27:37.760Z,-1.5
2023-04-09T03:30:08.347Z,-1.5
2023-04-09T03:32:38.901Z,-1.5
2023-04-09T03:35:19.531Z,-1.4
2023-04-09T03:37:50.177Z,-1.4
2023-04-09T03:40:20.778Z,-1.4
2023-04-09T03:42:51.316Z,-1.5
2023-04-09T03:45:21.862Z,-1.5
2023-04-09T03:47:52.480Z,-1.4
2023-04-09T03:50:33.084Z,-1.4
2023-04-09T03:55:33.684Z,-1.5
2023-04-09T03:58:14.237Z,-1.6
2023-04-09T04:00:44.814Z,-1.7
2023-04-09T04:03:15.461Z,-1.8
2023-04-09T04:05:56.467Z,-1.9
2023-04-09T04:08:27.010Z,-1.9
2023-04-09T04:10:57.586Z,-1.9
2023-04-09T04:13:28.194Z,-1.9
2023-04-09T04:15:58.742Z,-2.0
2023-04-09T04:18:39.365Z,-1.9
2023-04-09T04:21:10.103Z,-1.9
2023-04-09T04:23:40.706Z,-2.1
2023-04-09T04:26:11.329Z,-2.2
2023-04-09T04:28:41.859Z,-2.3
2023-04-09T04:31:12.770Z,-2.4
2023-04-09T04:36:23.414Z,-2.5
2023-04-09T04:38:54.167Z,-2.2
2023-04-09T04:41:25.021Z,-2.1
2023-04-09T04:43:55.588Z,-2.1
2023-04-09T04:46:26.189Z,-2.0
2023-04-09T04:49:06.871Z,-2.1
2023-04-09T04:51:37.430Z,-2.1
2023-04-09T04:54:07.973Z,-2.1
2023-04-09T04:59:08.558Z,-2.2
2023-04-09T05:01:39.190Z,-2.1
2023-04-09T05:04:19.956Z,-2.1
2023-04-09T05:06:50.525Z,-2.0
2023-04-09T05:09:22.400Z,-1.9
2023-04-09T05:11:53.113Z,-1.7
2023-04-09T05:17:03.660Z,-1.3
2023-04-09T05:19:34.239Z,-1.0
2023-04-09T05:22:04.808Z,-1.8
2023-04-09T05:24:35.398Z,-2.1
2023-04-09T05:27:05.965Z,-2.1
2023-04-09T05:29:36.502Z,-2.0
2023-04-09T05:32:19.789Z,-1.7
2023-04-09T05:34:50.475Z,-1.4
2023-04-09T05:37:21.040Z,-0.7
2023-04-09T05:39:51.609Z,-0.3
2023-04-09T05:42:22.198Z,0.0
2023-04-09T05:44:52.786Z,0.3
2023-04-09T05:47:33.371Z,0.5
2023-04-09T05:50:03.975Z,0.6
2023-04-09T05:52:34.540Z,0.5
2023-04-09T05:57:35.086Z,0.7
2023-04-09T06:00:05.660Z,0.9
2023-04-09T06:02:46.359Z,0.5
2023-04-09T06:05:17.158Z,0.0
2023-04-09T06:07:47.692Z,0.6
2023-04-09T06:10:18.242Z,0.7
2023-04-09T06:12:50.584Z,1.3
2023-04-09T06:15:21.191Z,2.0
2023-04-09T06:18:01.878Z,2.3
2023-04-09T06:20:32.527Z,2.7
2023-04-09T06:23:03.088Z,2.9
2023-04-09T06:25:33.654Z,2.6
2023-04-09T06:28:04.230Z,3.0
2023-04-09T06:30:44.860Z,2.7
2023-04-09T06:33:15.581Z,3.2
2023-04-09T06:38:16.206Z,3.3
2023-04-09T06:40:46.779Z,3.2
2023-04-09T06:43:17.322Z,3.5
2023-04-09T06:45:57.909Z,3.6
2023-04-09T06:48:28.561Z,3.5
2023-04-09T06:50:59.128Z,3.8
2023-04-09T06:53:29.725Z,3.6
2023-04-09T06:56:00.637Z,3.9
2023-04-09T06:58:31.189Z,4.5
2023-04-09T07:01:11.739Z,4.8
2023-04-09T07:03:42.504Z,4.7
2023-04-09T07:06:13.915Z,4.3
2023-04-09T07:08:44.448Z,4.3
2023-04-09T07:11:15.411Z,4.4
2023-04-09T07:13:45.979Z,4.5
2023-04-09T07:18:56.561Z,4.9
2023-04-09T07:21:27.278Z,4.9
2023-04-09T07:23:57.830Z,5.2
2023-04-09T07:26:28.456Z,5.2
2023-04-09T07:29:01.408Z,4.7
2023-04-09T07:31:42.014Z,5.2
2023-04-09T07:34:12.791Z,5.3
2023-04-09T07:36:43.371Z,5.2
2023-04-09T07:39:13.959Z,5.4
2023-04-09T07:41:44.818Z,5.4
2023-04-09T07:44:25.358Z,5.3
2023-04-09T07:46:55.955Z,5.2
2023-04-09T07:49:26.621Z,4.7
2023-04-09T07:51:57.297Z,5.1
2023-04-09T07:54:27.852Z,4.7
2023-04-09T07:59:38.425Z,4.5
2023-04-09T08:02:09.147Z,4.5
2023-04-09T08:04:40.345Z,4.7
2023-04-09T08:07:11.198Z,4.7
2023-04-09T08:09:41.764Z,4.5
2023-04-09T08:12:12.408Z,4.3
2023-04-09T08:14:52.965Z,4.5
2023-04-09T08:17:23.539Z,4.5
2023-04-09T08:19:54.210Z,4.7
2023-04-09T08:22:34.806Z,4.7
2023-04-09T08:25:05.413Z,4.8
2023-04-09T08:27:35.996Z,5.1
2023-04-09T08:30:18.309Z,5.2
2023-04-09T08:32:39.398Z,5.6
2023-04-09T08:35:10.010Z,5.4
2023-04-09T08:40:10.632Z,5.4
2023-04-09T08:42:51.194Z,5.8
2023-04-09T08:45:31.749Z,6.0
2023-04-09T08:48:02.564Z,6.3
2023-04-09T08:50:33.457Z,6.7
2023-04-09T08:53:03.994Z,6.8
2023-04-09T08:55:34.539Z,6.9
2023-04-09T08:58:15.164Z,7.2
2023-04-09T09:00:45.743Z,7.3
2023-04-09T09:03:16.503Z,7.7
2023-04-09T09:05:47.402Z,7.7
2023-04-09T09:08:17.953Z,7.8
2023-04-09T09:10:48.498Z,8.0
2023-04-09T09:13:29.062Z,8.4
2023-04-09T09:15:59.639Z,8.5
2023-04-09T09:21:00.255Z,8.2
2023-04-09T09:23:30.820Z,8.3
2023-04-09T09:26:01.393Z,8.4
2023-04-09T09:31:12.047Z,8.4
2023-04-09T09:33:42.780Z,8.2
2023-04-09T09:36:13.446Z,8.1
2023-04-09T09:38:44.064Z,8.1
2023-04-09T09:41:15.251Z,8.2
2023-04-09T09:43:55.820Z,8.0
2023-04-09T09:46:26.557Z,8.0
2023-04-09T09:48:57.288Z,8.0
2023-04-09T09:51:27.892Z,8.0
2023-04-09T09:53:58.448Z,8.4
2023-04-09T09:56:29.035Z,8.4
2023-04-09T10:01:39.660Z,8.4
2023-04-09T10:04:10.670Z,8.3
2023-04-09T10:06:41.346Z,8.3
2023-04-09T10:09:13.703Z,8.4
2023-04-09T10:11:44.249Z,8.5
2023-04-09T10:14:24.809Z,8.6
2023-04-09T10:16:55.378Z,8.8
2023-04-09T10:19:25.956Z,8.8
2023-04-09T10:21:56.517Z,8.9
2023-04-09T10:24:27.103Z,9.2
2023-04-09T10:27:07.650Z,9.3
2023-04-09T10:29:38.201Z,9.3
2023-04-09T10:32:08.778Z,9.5
2023-04-09T10:34:39.484Z,9.2
2023-04-09T10:37:10.049Z,9.2
2023-04-09T10:42:20.633Z,9.3
2023-04-09T10:44:51.189Z,9.1
2023-04-09T10:47:21.815Z,9.1
2023-04-09T10:49:52.534Z,9.1
2023-04-09T10:52:23.141Z,9.0
2023-04-09T10:54:53.702Z,9.0
2023-04-09T10:57:34.243Z,9.2
2023-04-09T11:00:04.791Z,9.2
2023-04-09T11:02:35.472Z,9.3
2023-04-09T11:05:06.477Z,9.4
2023-04-09T11:07:37.084Z,9.4
2023-04-09T11:10:07.644Z,9.2
2023-04-09T11:12:48.183Z,9.3
2023-04-09T11:15:18.793Z,9.2
2023-04-09T11:17:49.413Z,9.4
2023-04-09T11:23:00.270Z,9.4
2023-04-09T11:25:40.836Z,9.4
2023-04-09T11:28:11.425Z,9.5
2023-04-09T11:30:41.978Z,9.5
2023-04-09T11:33:12.623Z,9.7
2023-04-09T11:35:43.212Z,10.1
2023-04-09T11:38:13.858Z,9.7
2023-04-09T11:40:54.416Z,9.8
2023-04-09T11:43:25.003Z,10.0
2023-04-09T11:45:57.564Z,10.2
2023-04-09T11:48:18.323Z,9.9
2023-04-09T11:50:49.087Z,9.6
2023-04-09T11:53:29.652Z,9.7
2023-04-09T11:56:10.231Z,9.9
2023-04-09T11:58:40.824Z,9.6
2023-04-09T12:03:41.805Z,9.6
2023-04-09T12:06:13.275Z,9.5
2023-04-09T12:08:43.827Z,9.7
2023-04-09T12:11:24.496Z,9.9
2023-04-09T12:16:25.115Z,9.9
2023-04-09T12:18:55.904Z,9.8
2023-04-09T12:21:26.481Z,10.0
2023-04-09T12:24:07.051Z,10.2
2023-04-09T12:26:37.644Z,10.4
2023-04-09T12:29:08.262Z,10.4
2023-04-09T12:31:38.889Z,10.4
2023-04-09T12:34:09.688Z,10.4
2023-04-09T12:36:40.249Z,10.8
2023-04-09T12:39:20.828Z,10.5
2023-04-09T12:44:23.035Z,10.7
2023-04-09T12:46:53.576Z,10.5
2023-04-09T12:49:24.149Z,10.4
2023-04-09T12:51:54.710Z,10.8
2023-04-09T12:54:35.298Z,10.9
2023-04-09T12:57:05.840Z,10.8
2023-04-09T12:59:36.394Z,11.3
2023-04-09T13:02:07.173Z,11.4
2023-04-09T13:04:38.493Z,11.2
2023-04-09T13:07:09.139Z,10.8
2023-04-09T13:09:49.740Z,10.5
2023-04-09T13:12:20.283Z,10.6
2023-04-09T13:14:50.856Z,10.5
2023-04-09T13:17:21.653Z,10.6
2023-04-09T13:19:52.548Z,10.8
2023-04-09T13:25:03.116Z,10.7
2023-04-09T13:27:35.354Z,10.7
2023-04-09T13:30:06.050Z,10.6
2023-04-09T13:32:36.683Z,10.7
2023-04-09T13:35:07.381Z,11.2
2023-04-09T13:37:47.949Z,11.8
2023-04-09T13:40:18.519Z,12.4
2023-04-09T13:42:49.087Z,12.1
2023-04-09T13:45:19.665Z,12.4
2023-04-09T13:47:50.283Z,12.6
2023-04-09T13:50:22.526Z,12.1
2023-04-09T13:53:03.094Z,11.6
2023-04-09T13:55:33.657Z,11.4
2023-04-09T13:58:04.232Z,11.5
2023-04-09T14:00:34.816Z,11.2
2023-04-09T14:05:35.376Z,11.5
2023-04-09T14:08:15.916Z,11.8
2023-04-09T14:10:46.505Z,12.0
2023-04-09T14:13:17.075Z,12.0
2023-04-09T14:15:47.659Z,11.8
2023-04-09T14:18:20.879Z,12.1
2023-04-09T14:20:51.448Z,11.5
2023-04-09T14:23:32.033Z,11.6
2023-04-09T14:26:02.595Z,11.7
2023-04-09T14:28:34.482Z,11.4
2023-04-09T14:31:05.388Z,11.6
2023-04-09T14:33:36.062Z,11.5
2023-04-09T14:36:16.684Z,11.8
2023-04-09T14:38:47.262Z,12.4
2023-04-09T14:41:18.515Z,12.9
2023-04-09T14:46:19.104Z,12.8
2023-04-09T14:48:49.880Z,12.9
2023-04-09T14:51:30.553Z,13.0
2023-04-09T14:54:01.111Z,13.2
2023-04-09T14:56:31.704Z,12.6
2023-04-09T14:59:02.258Z,12.1
2023-04-09T15:01:33.387Z,11.7
2023-04-09T15:04:04.414Z,11.7
2023-04-09T15:06:45.202Z,11.6
2023-04-09T15:09:15.768Z,12.0
2023-04-09T15:11:46.348Z,12.0
2023-04-09T15:14:16.914Z,11.8
2023-04-09T15:16:47.566Z,11.8
2023-04-09T15:19:18.232Z,11.6
2023-04-09T15:21:58.809Z,11.3
2023-04-09T15:26:59.365Z,11.2
2023-04-09T15:29:29.923Z,11.1
2023-04-09T15:32:00.572Z,11.1
2023-04-09T15:34:41.251Z,11.0
2023-04-09T15:37:11.809Z,10.8
2023-04-09T15:39:42.361Z,10.7
2023-04-09T15:42:14.704Z,10.7
2023-04-09T15:44:45.325Z,10.8
2023-04-09T15:47:15.898Z,10.7
2023-04-09T15:49:56.573Z,10.8
2023-04-09T15:52:27.260Z,10.6
2023-04-09T15:54:57.849Z,10.6
2023-04-09T15:57:28.473Z,10.5
2023-04-09T15:59:59.173Z,10.5
2023-04-09T16:02:29.818Z,10.4
2023-04-09T16:07:40.529Z,10.2
2023-04-09T16:10:11.109Z,10.2
2023-04-09T16:12:41.764Z,10.1
2023-04-09T16:15:12.350Z,10.0
2023-04-09T16:17:42.949Z,9.9
2023-04-09T16:20:23.655Z,9.9
2023-04-09T16:22:54.198Z,9.7
2023-04-09T16:25:24.769Z,9.5
2023-04-09T16:27:55.369Z,9.5
2023-04-09T16:30:25.929Z,9.5
2023-04-09T16:33:06.467Z,9.6
2023-04-09T16:35:38.632Z,9.6
2023-04-09T16:38:09.937Z,9.6
2023-04-09T16:40:40.584Z,9.7
2023-04-09T16:43:11.164Z,9.6
2023-04-09T16:48:21.769Z,9.7
2023-04-09T16:50:52.410Z,9.8
2023-04-09T16:53:22.975Z,9.9
2023-04-09T16:55:53.556Z,10.0
2023-04-09T16:58:24.117Z,10.1
2023-04-09T17:00:54.699Z,10.3
2023-04-09T17:03:35.360Z,10.6
2023-04-09T17:06:06.180Z,10.6
2023-04-09T17:08:36.730Z,10.5
2023-04-09T17:11:07.291Z,10.5
2023-04-09T17:13:37.872Z,10.6
2023-04-09T17:16:08.623Z,10.4
2023-04-09T17:18:49.216Z,10.3
2023-04-09T17:21:19.953Z,10.3
2023-04-09T17:23:50.617Z,10.2
2023-04-09T17:29:01.297Z,9.9
2023-04-09T17:31:31.844Z,9.6
2023-04-09T17:34:12.416Z,9.5
2023-04-09T17:36:42.965Z,9.3
2023-04-09T17:39:13.512Z,9.2
2023-04-09T17:41:44.080Z,9.0
2023-04-09T17:46:54.705Z,8.5
2023-04-09T17:49:25.295Z,8.3
2023-04-09T17:51:55.871Z,8.0
2023-04-09T17:54:26.448Z,7.9
2023-04-09T17:56:56.995Z,7.6
2023-04-09T17:59:27.620Z,7.4
2023-04-09T18:02:08.253Z,7.2
2023-04-09T18:04:39.681Z,6.8
2023-04-09T18:09:40.822Z,6.6
2023-04-09T18:12:11.388Z,6.6
2023-04-09T18:14:41.943Z,6.5
2023-04-09T18:17:22.520Z,6.4
2023-04-09T18:19:53.161Z,6.4
2023-04-09T18:22:23.718Z,6.4
2023-04-09T18:24:54.276Z,6.2
2023-04-09T18:27:24.862Z,6.0
2023-04-09T18:29:55.416Z,5.9
2023-04-09T18:32:36.004Z,5.8
2023-04-09T18:35:06.692Z,5.6
2023-04-09T18:37:37.269Z,5.5
2023-04-09T18:40:07.827Z,5.4
2023-04-09T18:42:38.395Z,5.4
2023-04-09T18:45:08.942Z,5.3
2023-04-09T18:50:19.517Z,4.9
2023-04-09T18:52:50.085Z,4.7
2023-04-09T18:55:20.634Z,4.5
2023-04-09T18:57:51.186Z,4.3
2023-04-09T19:00:31.903Z,4.2
2023-04-09T19:03:02.586Z,4.1
2023-04-09T19:05:34.183Z,3.9
2023-04-09T19:08:04.907Z,3.7
2023-04-09T19:10:35.464Z,3.6
2023-04-09T19:13:06.006Z,3.5
2023-04-09T19:15:46.664Z,3.3
2023-04-09T19:18:17.485Z,3.1
2023-04-09T19:20:48.062Z,3.1
2023-04-09T19:25:48.656Z,2.7
2023-04-09T19:31:00.673Z,2.5
2023-04-09T19:33:32.698Z,2.5
2023-04-09T19:36:03.268Z,2.4
2023-04-09T19:38:33.841Z,2.3
2023-04-09T19:41:04.677Z,2.2
2023-04-09T19:43:36.010Z,2.2
2023-04-09T19:46:17.919Z,2.1
2023-04-09T19:48:48.570Z,2.1
2023-04-09T19:51:19.145Z,2.0
2023-04-09T19:53:49.691Z,1.9
2023-04-09T19:56:20.250Z,1.9
2023-04-09T19:59:00.806Z,1.7
2023-04-09T20:01:31.504Z,1.7
2023-04-09T20:04:02.476Z,1.8
2023-04-09T20:06:33.167Z,1.8
2023-04-09T20:11:33.781Z,1.6
2023-04-09T20:14:14.332Z,1.5
2023-04-09T20:16:44.917Z,1.5
2023-04-09T20:19:15.563Z,1.4
2023-04-09T20:21:46.106Z,1.3
2023-04-09T20:24:16.669Z,1.2
2023-04-09T20:26:47.255Z,1.2
2023-04-09T20:29:27.810Z,1.1
2023-04-09T20:31:58.421Z,1.0
2023-04-09T20:34:29.291Z,1.1
2023-04-09T20:36:59.867Z,0.9
2023-04-09T20:39:30.458Z,0.9
2023-04-09T20:42:01.017Z,0.9
2023-04-09T20:44:41.587Z,0.9
2023-04-09T20:47:12.602Z,0.8
2023-04-09T20:52:23.305Z,0.6
2023-04-09T20:54:53.912Z,0.5
2023-04-09T20:57:34.456Z,0.5
2023-04-09T21:00:05.008Z,0.4
2023-04-09T21:02:35.630Z,0.3
2023-04-09T21:05:19.382Z,0.3
2023-04-09T21:07:30.114Z,0.3
2023-04-09T21:10:00.663Z,0.2
2023-04-09T21:12:41.237Z,0.1
2023-04-09T21:15:11.791Z,0.1
2023-04-09T21:17:42.418Z,0.1
2023-04-09T21:20:13.153Z,0.1
2023-04-09T21:22:43.716Z,0.1
2023-04-09T21:25:15.337Z,0.1
2023-04-09T21:27:56.108Z,0.1
2023-04-09T21:32:56.754Z,-0.1
2023-04-09T21:35:27.490Z,-0.1
2023-04-09T21:37:58.229Z,-0.1
2023-04-09T21:40:28.787Z,-0.2
2023-04-09T21:43:09.338Z,-0.2
2023-04-09T21:45:39.909Z,-0.5
2023-04-09T21:48:10.560Z,-0.9
2023-04-09T21:50:41.126Z,-0.9
2023-04-09T21:53:11.758Z,-1.1
2023-04-09T21:56:04.250Z,-1.2
2023-04-09T21:58:25.540Z,-1.1
2023-04-09T22:00:56.113Z,-1.0
2023-04-09T22:03:29.842Z,-1.0
2023-04-09T22:06:00.945Z,-1.1
2023-04-09T22:08:31.480Z,-1.3
2023-04-09T22:13:46.339Z,-1.6
2023-04-09T22:16:16.950Z,-1.6
2023-04-09T22:18:47.797Z,-1.5
2023-04-09T22:21:18.713Z,-1.4
2023-04-09T22:23:49.286Z,-1.4
2023-04-09T22:26:29.857Z,-1.4
2023-04-09T22:29:00.396Z,-1.4
2023-04-09T22:31:30.999Z,-1.4
2023-04-09T22:34:06.952Z,-1.4
2023-04-09T22:36:32.220Z,-1.5
2023-04-09T22:39:02.915Z,-1.6
2023-04-09T22:41:43.486Z,-1.7
2023-04-09T22:44:14.047Z,-1.7
2023-04-09T22:46:44.668Z,-1.7
2023-04-09T22:49:15.303Z,-1.5
2023-04-09T22:54:25.877Z,-1.4
2023-04-09T22:56:56.431Z,-1.4
2023-04-09T22:59:30.714Z,-1.4
2023-04-09T23:01:57.758Z,-1.4
2023-04-09T23:04:28.721Z,-1.5
2023-04-09T23:06:59.416Z,-1.5
2023-04-09T23:09:39.966Z,-1.5
2023-04-09T23:12:10.529Z,-1.7
2023-04-09T23:14:41.069Z,-1.8
2023-04-09T23:17:11.667Z,-1.9
2023-04-09T23:19:42.330Z,-2.1
2023-04-09T23:22:12.919Z,-2.4
2023-04-09T23:24:53.493Z,-2.4
2023-04-09T23:27:24.036Z,-2.5
2023-04-09T23:29:54.620Z,-2.5
2023-04-09T23:34:55.187Z,-2.5
2023-04-09T23:37:25.812Z,-2.6
2023-04-09T23:40:06.371Z,-2.7
2023-04-09T23:42:36.931Z,-2.7
2023-04-09T23:45:07.528Z,-2.6
2023-04-09T23:47:38.104Z,-2.6
2023-04-09T23:50:08.846Z,-2.7
2023-04-09T23:52:39.405Z,-2.7
2023-04-09T23:55:20.132Z,-2.5
2023-04-09T23:57:50.720Z,-2.3
